Terminal Aerodrome Forecast
Issued by NWS

Home | Current Version | Previous Version | Text Only | Print | Product List | Glossary On
Versions: 1 2 3 4 5 6 7 8 9 10 11 12 13 14 15 16 17 18 19 20 21 22 23 24 25 26
716
FTUS43 KIWX 111621 AAA
TAFSBN
TAF AMD
KSBN 111621Z 1116/1212 27008KT P6SM -SHSN SCT020 OVC045
      TEMPO 1116/1120 1SM -SHSN BKN020
     FM112200 25005KT P6SM SCT070 BKN250=

USA.gov is the U.S. government's official web portal to all federal, state and local government web resources and services.